Time;durP1;ratioP1;P1;durP2;ratioP2;P2;SDS_P1;SDS_P2;PMS_P1;PMS_P2;Temp;Humidity;BMP_temperature;BMP_pressure;BME280_temperature;BME280_humidity;BME280_pressure;Samples;Min_cycle;Max_cycle;Signal;HPM_P1;HPM_P2
2023/10/19 00:02:07;;;;;;;5.22;1.05;;;14.50;88.00;;;;;;6248238;28;20077;-85
2023/10/19 00:05:09;;;;;;;11.73;1.33;;;14.50;88.30;;;;;;6237733;28;20057;-85
2023/10/19 00:08:20;;;;;;;11.82;1.73;;;14.50;83.20;;;;;;6236101;28;20586;-90
2023/10/19 00:11:24;;;;;;;13.45;1.60;;;14.40;83.10;;;;;;6213291;28;20042;-86
2023/10/19 00:14:26;;;;;;;6.82;1.30;;;14.30;82.40;;;;;;6235435;28;20050;-86
2023/10/19 00:17:28;;;;;;;12.18;2.03;;;14.20;82.30;;;;;;6236251;28;20050;-86
2023/10/19 00:20:49;;;;;;;14.45;1.80;;;14.20;81.80;;;;;;6226737;28;20060;-89
2023/10/19 00:23:51;;;;;;;14.00;2.00;;;14.10;82.50;;;;;;6212159;28;20088;-85
2023/10/19 00:26:55;;;;;;;12.73;1.70;;;14.00;83.00;;;;;;6205420;28;20058;-85
2023/10/19 00:30:06;;;;;;;9.52;1.60;;;14.10;82.20;;;;;;6222573;28;20401;-87
2023/10/19 00:33:16;;;;;;;9.32;1.35;;;14.10;81.90;;;;;;6218217;28;20551;-86
2023/10/19 00:36:20;;;;;;;10.93;1.33;;;14.20;81.80;;;;;;6202503;28;20061;-88
2023/10/19 00:39:23;;;;;;;8.65;1.30;;;14.30;82.00;;;;;;6227042;28;20514;-89
2023/10/19 00:42:30;;;;;;;11.25;1.40;;;14.30;82.00;;;;;;6227258;28;20049;-89
2023/10/19 00:45:33;;;;;;;15.85;1.60;;;14.30;81.70;;;;;;6217273;28;20182;-89
2023/10/19 00:48:35;;;;;;;10.32;1.27;;;14.30;82.60;;;;;;6210977;28;20054;-90
2023/10/19 00:57:54;;;;;;;6.43;1.40;;;14.20;83.80;;;;;;6228114;28;20057;-91
2023/10/19 01:00:56;;;;;;;14.23;2.03;;;14.20;84.00;;;;;;6224519;28;20104;-90
2023/10/19 01:03:58;;;;;;;8.73;1.25;;;14.20;84.90;;;;;;6202839;28;20050;-90
2023/10/19 01:07:12;;;;;;;14.45;1.40;;;14.10;86.20;;;;;;6233154;28;20058;-90
2023/10/19 01:10:21;;;;;;;7.65;1.30;;;14.20;85.90;;;;;;6212913;28;20065;-89
2023/10/19 01:13:34;;;;;;;6.75;1.38;;;14.30;86.50;;;;;;6207125;28;20055;-90
2023/10/19 01:16:36;;;;;;;8.20;1.20;;;14.30;86.70;;;;;;6228942;28;20054;-89
2023/10/19 01:19:40;;;;;;;12.85;0.98;;;14.40;87.00;;;;;;6225242;28;20058;-88
2023/10/19 01:22:42;;;;;;;7.35;1.38;;;14.40;87.50;;;;;;6214350;28;20046;-88
2023/10/19 01:25:58;;;;;;;11.15;1.23;;;14.40;87.60;;;;;;6226362;28;20482;-89
2023/10/19 01:29:13;;;;;;;6.38;1.35;;;14.50;88.10;;;;;;6224269;28;20064;-86
2023/10/19 01:32:15;;;;;;;14.90;1.35;;;14.60;88.00;;;;;;6215026;28;20050;-90
2023/10/19 01:35:17;;;;;;;9.88;1.40;;;14.60;88.60;;;;;;6226449;28;20050;-90
2023/10/19 01:38:19;;;;;;;6.72;0.95;;;14.60;88.90;;;;;;6225791;28;20421;-90
2023/10/19 01:41:20;;;;;;;5.38;0.90;;;14.60;89.80;;;;;;6225852;28;20525;-89
2023/10/19 01:44:24;;;;;;;9.55;1.25;;;14.60;89.80;;;;;;6211121;28;20060;-88
2023/10/19 01:47:27;;;;;;;7.22;0.90;;;14.70;89.90;;;;;;6225661;28;20159;-89
2023/10/19 01:50:29;;;;;;;5.53;0.75;;;14.70;90.20;;;;;;6226023;28;20049;-88
2023/10/19 01:53:31;;;;;;;4.07;0.88;;;14.70;90.20;;;;;;6226176;28;20049;-90
2023/10/19 01:56:38;;;;;;;4.95;0.90;;;14.80;90.40;;;;;;6225969;28;20061;-89
2023/10/19 01:59:44;;;;;;;8.13;1.10;;;14.80;90.40;;;;;;6226091;28;20066;-89
2023/10/19 02:02:47;;;;;;;5.95;1.00;;;14.80;90.50;;;;;;6216719;28;20050;-90
2023/10/19 02:05:50;;;;;;;8.05;1.15;;;14.90;90.50;;;;;;6226583;28;20042;-89
2023/10/19 02:08:55;;;;;;;7.03;1.00;;;14.90;90.60;;;;;;6227227;28;20133;-91
2023/10/19 02:11:57;;;;;;;8.45;1.15;;;15.00;90.40;;;;;;6224986;28;20092;-90
2023/10/19 02:14:59;;;;;;;7.03;1.00;;;15.00;90.30;;;;;;6224045;28;20057;-89
2023/10/19 02:18:01;;;;;;;6.13;0.90;;;15.00;90.40;;;;;;6223478;28;20072;-91
2023/10/19 02:21:06;;;;;;;4.95;1.00;;;15.10;90.40;;;;;;6225716;28;20057;-89
2023/10/19 02:24:07;;;;;;;7.72;1.23;;;15.10;90.50;;;;;;6225495;28;20129;-86
2023/10/19 02:27:09;;;;;;;8.02;1.48;;;15.10;90.70;;;;;;6222543;28;20418;-88
2023/10/19 02:30:24;;;;;;;3.53;1.10;;;15.20;90.90;;;;;;6212403;28;20054;-88
2023/10/19 02:33:26;;;;;;;7.07;1.02;;;15.00;91.00;;;;;;6211124;28;20434;-88
2023/10/19 02:36:29;;;;;;;7.28;0.85;;;15.10;91.10;;;;;;6221998;28;20084;-90
2023/10/19 02:39:31;;;;;;;2.92;0.80;;;15.10;91.30;;;;;;6224917;28;20057;-89
2023/10/19 02:42:33;;;;;;;4.78;1.02;;;15.10;91.40;;;;;;6223692;28;20386;-90
2023/10/19 02:45:35;;;;;;;3.95;1.23;;;15.20;91.50;;;;;;6222783;28;20064;-89
2023/10/19 02:48:38;;;;;;;6.30;0.80;;;15.20;91.50;;;;;;6200176;28;20054;-90
2023/10/19 02:51:40;;;;;;;5.00;0.90;;;15.20;91.60;;;;;;6231737;28;20061;-91
2023/10/19 02:54:41;;;;;;;7.57;1.52;;;15.30;91.60;;;;;;6220779;28;20120;-91
2023/10/19 02:57:46;;;;;;;6.50;1.38;;;15.40;91.60;;;;;;6223553;28;20060;-90
2023/10/19 03:00:48;;;;;;;10.75;1.20;;;15.40;91.60;;;;;;6223085;28;20062;-91
2023/10/19 03:03:50;;;;;;;10.13;1.55;;;15.50;91.40;;;;;;6216481;28;20057;-90
2023/10/19 03:06:52;;;;;;;11.82;1.35;;;15.60;91.10;;;;;;6203801;28;20050;-90
2023/10/19 03:09:54;;;;;;;13.55;1.60;;;15.60;90.90;;;;;;6223565;28;20061;-89
2023/10/19 03:12:58;;;;;;;8.48;1.25;;;15.60;90.80;;;;;;6223152;28;20414;-90
2023/10/19 03:16:09;;;;;;;8.55;1.58;;;15.60;90.70;;;;;;6222575;28;20073;-89
2023/10/19 03:19:11;;;;;;;6.13;1.20;;;15.80;90.60;;;;;;6222130;28;20486;-90
2023/10/19 03:22:14;;;;;;;12.18;1.65;;;15.80;90.50;;;;;;6210013;28;20054;-90
2023/10/19 03:28:37;;;;;;;14.13;2.85;;;15.90;90.20;;;;;;6206705;28;20049;-91
2023/10/19 03:31:43;;;;;;;11.55;1.30;;;15.90;90.20;;;;;;6218357;28;20050;-89
2023/10/19 03:34:55;;;;;;;10.02;1.83;;;15.90;90.10;;;;;;6199729;28;20054;-88
2023/10/19 03:38:00;;;;;;;14.23;2.28;;;15.90;90.00;;;;;;6200140;28;20133;-88
2023/10/19 03:41:06;;;;;;;13.27;1.88;;;15.90;89.50;;;;;;6197372;28;20105;-88
2023/10/19 03:44:14;;;;;;;13.02;1.95;;;16.00;89.30;;;;;;6208768;28;20050;-88
2023/10/19 03:47:19;;;;;;;13.40;1.92;;;15.90;89.10;;;;;;6214501;28;20058;-89
2023/10/19 03:50:21;;;;;;;13.48;1.77;;;15.90;88.50;;;;;;6223682;28;20053;-89
2023/10/19 03:53:23;;;;;;;9.57;1.63;;;16.00;88.30;;;;;;6223540;28;20050;-89
2023/10/19 03:56:25;;;;;;;11.18;1.77;;;16.00;88.20;;;;;;6223359;28;20054;-88
2023/10/19 03:59:31;;;;;;;12.20;2.03;;;16.00;88.20;;;;;;6221134;28;20058;-89
2023/10/19 04:02:38;;;;;;;15.07;2.20;;;15.90;88.60;;;;;;6215836;28;20461;-88
2023/10/19 04:05:41;;;;;;;11.38;1.77;;;16.00;87.90;;;;;;6202815;28;20500;-88
2023/10/19 04:08:42;;;;;;;13.75;2.45;;;16.00;88.00;;;;;;6204028;28;20085;-89
2023/10/19 04:11:51;;;;;;;18.08;1.77;;;15.90;89.10;;;;;;6222784;28;20052;-88
2023/10/19 04:14:53;;;;;;;11.73;1.90;;;15.80;89.50;;;;;;6219193;28;20065;-83
2023/10/19 04:17:58;;;;;;;13.85;2.20;;;15.80;90.10;;;;;;6220929;28;20184;-87
2023/10/19 04:21:02;;;;;;;8.50;2.38;;;15.80;90.20;;;;;;6222577;28;20124;-86
2023/10/19 04:24:04;;;;;;;11.63;1.63;;;15.80;90.50;;;;;;6222934;28;20061;-87
2023/10/19 04:27:06;;;;;;;11.63;1.67;;;15.70;90.70;;;;;;6209749;28;20058;-86
2023/10/19 04:30:15;;;;;;;11.40;2.05;;;15.70;90.90;;;;;;6218925;28;20050;-87
2023/10/19 04:33:18;;;;;;;13.25;1.80;;;15.70;91.10;;;;;;6215774;28;20139;-88
2023/10/19 04:36:22;;;;;;;9.73;1.20;;;15.70;91.30;;;;;;6222639;28;20072;-86
2023/10/19 04:39:24;;;;;;;10.30;1.58;;;15.70;91.40;;;;;;6224286;28;20413;-89
2023/10/19 04:42:27;;;;;;;11.73;1.60;;;15.70;91.40;;;;;;6230523;28;20054;-89
2023/10/19 04:45:29;;;;;;;10.70;1.50;;;15.70;91.50;;;;;;6222283;28;20058;-89
2023/10/19 04:48:31;;;;;;;12.80;2.10;;;15.70;91.50;;;;;;6221337;28;20053;-89
2023/10/19 04:51:34;;;;;;;11.15;2.75;;;15.70;91.50;;;;;;6244433;28;20149;-87
2023/10/19 04:54:37;;;;;;;13.25;1.70;;;15.80;91.40;;;;;;6239604;28;20084;-87
2023/10/19 04:57:39;;;;;;;7.32;1.52;;;15.80;91.40;;;;;;6239874;28;20065;-86
2023/10/19 05:00:41;;;;;;;12.02;2.08;;;15.80;91.40;;;;;;6227825;28;20129;-88
2023/10/19 05:03:43;;;;;;;12.05;2.22;;;15.80;91.40;;;;;;6205456;28;20065;-88
2023/10/19 05:06:44;;;;;;;12.70;1.85;;;15.70;91.20;;;;;;6240048;28;20049;-85
2023/10/19 05:09:46;;;;;;;12.07;1.42;;;15.80;91.20;;;;;;6225400;28;20065;-87
2023/10/19 05:12:48;;;;;;;15.25;2.00;;;15.80;91.10;;;;;;6217289;28;20054;-88
2023/10/19 05:15:49;;;;;;;19.13;3.08;;;15.90;90.20;;;;;;6217968;28;20554;-85
2023/10/19 05:18:51;;;;;;;11.60;2.38;;;16.00;90.20;;;;;;6222423;28;20054;-84
2023/10/19 05:21:53;;;;;;;14.30;2.65;;;16.00;90.00;;;;;;6220330;28;20466;-86
2023/10/19 05:24:55;;;;;;;13.48;2.28;;;16.00;90.20;;;;;;6222122;28;20053;-84
2023/10/19 05:27:56;;;;;;;12.88;2.67;;;16.00;90.20;;;;;;6217852;28;20064;-85
2023/10/19 05:31:01;;;;;;;17.08;2.35;;;15.90;90.30;;;;;;6220317;28;20062;-86
2023/10/19 05:34:04;;;;;;;10.15;2.25;;;15.90;90.50;;;;;;6217623;28;20081;-86
2023/10/19 05:37:05;;;;;;;16.38;2.45;;;15.90;90.40;;;;;;6205040;28;20057;-82
2023/10/19 05:40:12;;;;;;;10.63;2.22;;;15.90;90.40;;;;;;6219645;28;20089;-85
2023/10/19 05:43:14;;;;;;;14.60;2.38;;;16.00;90.20;;;;;;6216904;28;20124;-86
2023/10/19 05:46:19;;;;;;;10.80;2.00;;;16.00;88.80;;;;;;6221371;28;20066;-87
2023/10/19 05:49:21;;;;;;;15.18;2.13;;;15.90;89.30;;;;;;6220394;28;20084;-83
2023/10/19 05:52:23;;;;;;;11.07;2.22;;;15.90;88.80;;;;;;6221458;28;20062;-86
2023/10/19 05:55:25;;;;;;;16.38;2.30;;;16.00;87.20;;;;;;6219779;28;20604;-84
2023/10/19 05:58:27;;;;;;;13.38;2.05;;;16.00;87.00;;;;;;6219501;28;20053;-85
2023/10/19 06:01:29;;;;;;;23.60;2.58;;;16.00;86.60;;;;;;6222696;28;20144;-88
2023/10/19 06:04:31;;;;;;;16.83;2.67;;;15.90;86.40;;;;;;6221030;28;20057;-86
2023/10/19 06:07:34;;;;;;;18.60;1.90;;;15.90;86.60;;;;;;6219693;28;20536;-84
2023/10/19 06:10:39;;;;;;;15.57;2.10;;;15.90;86.10;;;;;;6220290;28;20136;-84
2023/10/19 06:13:41;;;;;;;9.38;2.33;;;15.90;85.70;;;;;;6218124;28;20494;-85
2023/10/19 06:16:42;;;;;;;13.60;2.65;;;15.80;86.00;;;;;;6219237;28;20139;-84
2023/10/19 06:19:45;;;;;;;12.85;2.30;;;15.90;85.60;;;;;;6219673;28;20061;-85
2023/10/19 06:22:50;;;;;;;16.48;2.85;;;15.90;85.80;;;;;;6220441;28;20086;-88
2023/10/19 06:25:52;;;;;;;15.55;2.47;;;15.90;85.60;;;;;;6220335;28;20061;-88
2023/10/19 06:29:01;;;;;;;15.20;2.40;;;16.00;86.10;;;;;;6219892;28;20557;-87
2023/10/19 06:32:03;;;;;;;15.48;3.00;;;16.00;86.70;;;;;;6211936;28;20238;-86
2023/10/19 06:35:05;;;;;;;17.05;2.65;;;16.00;86.40;;;;;;6219262;28;20481;-85
2023/10/19 06:38:09;;;;;;;15.95;2.53;;;16.00;86.70;;;;;;6221743;28;20061;-87
2023/10/19 06:41:11;;;;;;;20.55;2.05;;;16.10;86.90;;;;;;6218833;28;20070;-86
2023/10/19 06:44:12;;;;;;;19.17;2.30;;;16.10;86.90;;;;;;6215975;28;20222;-86
2023/10/19 06:47:14;;;;;;;16.27;2.22;;;16.10;85.90;;;;;;6218897;28;20406;-87
2023/10/19 06:50:16;;;;;;;14.68;2.35;;;16.10;85.30;;;;;;6219184;28;20069;-86
2023/10/19 06:53:18;;;;;;;16.00;2.67;;;16.20;85.40;;;;;;6219655;28;20050;-86
2023/10/19 06:56:20;;;;;;;18.23;2.65;;;16.20;84.30;;;;;;6218858;28;20050;-85
2023/10/19 06:59:21;;;;;;;9.98;1.90;;;16.20;84.00;;;;;;6217963;28;20062;-86
2023/10/19 07:02:23;;;;;;;11.48;1.73;;;16.20;84.60;;;;;;6218970;28;20069;-86
2023/10/19 07:05:25;;;;;;;10.23;1.90;;;16.30;83.70;;;;;;6218187;28;20050;-88
2023/10/19 07:08:27;;;;;;;14.30;2.20;;;16.30;83.90;;;;;;6222259;28;20064;-85
2023/10/19 07:11:29;;;;;;;17.23;2.53;;;16.30;83.20;;;;;;6219250;28;20045;-85
2023/10/19 07:14:30;;;;;;;11.93;2.00;;;16.40;83.00;;;;;;6214202;28;20061;-86
2023/10/19 07:17:32;;;;;;;12.57;2.95;;;16.40;83.00;;;;;;6218878;28;20061;-88
2023/10/19 07:20:38;;;;;;;13.63;2.33;;;16.40;82.70;;;;;;6218717;28;20069;-87
2023/10/19 07:23:40;;;;;;;13.82;2.33;;;16.40;82.30;;;;;;6218989;28;20057;-87
2023/10/19 07:26:53;;;;;;;16.75;2.25;;;16.50;82.70;;;;;;6219059;28;20647;-85
2023/10/19 07:29:54;;;;;;;11.35;2.17;;;16.50;82.40;;;;;;6210320;28;20061;-87
2023/10/19 07:32:59;;;;;;;12.18;1.65;;;16.50;82.40;;;;;;6218294;28;20545;-87
2023/10/19 07:36:06;;;;;;;9.40;2.20;;;16.50;82.40;;;;;;6219916;28;20179;-87
2023/10/19 07:39:18;;;;;;;15.30;1.98;;;16.50;82.40;;;;;;6210813;28;20104;-83
2023/10/19 07:42:21;;;;;;;8.63;1.45;;;16.50;81.90;;;;;;6193221;28;20058;-85
2023/10/19 07:45:23;;;;;;;9.25;1.30;;;16.60;82.10;;;;;;6223753;28;20223;-84
2023/10/19 07:48:24;;;;;;;9.52;1.98;;;16.60;81.70;;;;;;6215493;28;20390;-87
2023/10/19 07:51:26;;;;;;;10.07;1.52;;;16.70;81.80;;;;;;6221337;28;20072;-87
2023/10/19 07:54:28;;;;;;;10.27;1.60;;;16.70;82.40;;;;;;6220951;28;20057;-89
2023/10/19 07:57:30;;;;;;;11.80;1.50;;;16.70;80.00;;;;;;6219076;28;20437;-86
2023/10/19 08:00:33;;;;;;;12.50;1.50;;;16.70;82.00;;;;;;6216854;28;20069;-87
2023/10/19 08:03:35;;;;;;;7.70;1.42;;;16.60;79.80;;;;;;6196854;28;20053;-88
2023/10/19 08:06:37;;;;;;;9.88;1.63;;;16.70;81.10;;;;;;6220665;28;20139;-89
2023/10/19 08:09:39;;;;;;;9.88;1.73;;;16.70;81.20;;;;;;6227297;28;20076;-89
2023/10/19 08:12:41;;;;;;;6.13;1.45;;;16.80;80.80;;;;;;6225705;28;20057;-87
2023/10/19 08:15:44;;;;;;;12.25;1.58;;;16.80;79.50;;;;;;6230186;28;20066;-89
2023/10/19 08:18:46;;;;;;;10.02;1.65;;;16.90;78.50;;;;;;6234490;28;20448;-91
2023/10/19 08:21:48;;;;;;;8.23;1.15;;;17.00;76.10;;;;;;6233619;28;20049;-89
2023/10/19 08:24:51;;;;;;;9.13;1.67;;;17.10;75.90;;;;;;6234355;28;20064;-83
2023/10/19 08:27:56;;;;;;;10.77;2.10;;;17.20;77.20;;;;;;6200785;28;20390;-85
2023/10/19 08:31:01;;;;;;;10.18;1.60;;;17.30;76.00;;;;;;6222625;28;20111;-87
2023/10/19 08:34:03;;;;;;;10.90;1.80;;;17.40;72.80;;;;;;6202732;28;20524;-94
2023/10/19 08:37:05;;;;;;;7.20;1.20;;;17.30;73.40;;;;;;6227836;28;20058;-93
2023/10/19 08:40:07;;;;;;;12.40;1.90;;;17.50;75.20;;;;;;6223315;28;20073;-83
2023/10/19 08:43:13;;;;;;;11.75;1.73;;;17.50;73.30;;;;;;6222093;28;20034;-83
2023/10/19 08:46:15;;;;;;;11.02;1.85;;;17.30;74.40;;;;;;6222164;28;20512;-91
2023/10/19 08:49:16;;;;;;;10.77;1.60;;;17.40;73.70;;;;;;6223380;28;20054;-86
2023/10/19 08:52:18;;;;;;;9.18;1.75;;;17.40;73.50;;;;;;6227727;28;20517;-86
2023/10/19 08:55:20;;;;;;;8.98;1.92;;;17.60;73.80;;;;;;6232660;28;20050;-90
2023/10/19 08:58:37;;;;;;;12.00;2.10;;;17.70;72.70;;;;;;6235455;28;20049;-90
2023/10/19 09:01:39;;;;;;;9.73;1.25;;;17.70;73.80;;;;;;6233958;28;20061;-82
2023/10/19 09:04:42;;;;;;;10.23;1.98;;;17.90;71.40;;;;;;6239977;28;20054;-94
2023/10/19 09:07:43;;;;;;;10.00;1.70;;;17.80;73.70;;;;;;6241775;28;20421;-86
2023/10/19 09:10:48;;;;;;;13.68;2.10;;;17.80;73.10;;;;;;6235932;28;20136;-94
2023/10/19 09:13:50;;;;;;;15.15;3.20;;;17.70;72.60;;;;;;6236044;28;20066;-91
2023/10/19 09:16:52;;;;;;;15.55;2.88;;;17.70;70.10;;;;;;6232531;28;20054;-93
2023/10/19 09:19:56;;;;;;;13.65;1.70;;;17.50;74.00;;;;;;6228371;28;20060;-90
2023/10/19 09:23:02;;;;;;;10.68;2.08;;;17.40;76.30;;;;;;6204034;28;20062;-91
2023/10/19 09:26:05;;;;;;;10.82;2.33;;;17.40;75.80;;;;;;6223830;28;20060;-93
2023/10/19 09:29:07;;;;;;;10.15;1.95;;;17.50;76.90;;;;;;6213043;28;20077;-80
2023/10/19 09:32:11;;;;;;;8.20;1.60;;;17.50;77.20;;;;;;6228422;28;20469;-92
2023/10/19 09:35:15;;;;;;;10.23;2.00;;;17.50;75.60;;;;;;6226425;28;20410;-93
2023/10/19 09:38:21;;;;;;;10.00;2.30;;;17.50;76.80;;;;;;6223696;28;20081;-83
2023/10/19 09:41:28;;;;;;;11.77;1.80;;;17.40;75.30;;;;;;6218449;28;20065;-91
2023/10/19 09:44:31;;;;;;;8.27;1.92;;;17.30;75.90;;;;;;6221712;28;20436;-83
2023/10/19 09:47:35;;;;;;;13.18;2.10;;;17.30;76.60;;;;;;6216198;28;20072;-86
2023/10/19 09:50:37;;;;;;;12.88;2.47;;;17.20;77.10;;;;;;6219578;28;20050;-82
2023/10/19 09:53:38;;;;;;;10.35;2.40;;;17.20;77.30;;;;;;6220294;28;20081;-86
2023/10/19 09:56:41;;;;;;;11.77;2.53;;;17.20;77.30;;;;;;6209505;28;20053;-83
2023/10/19 09:59:43;;;;;;;13.25;2.10;;;17.30;77.40;;;;;;6216922;28;20065;-80
2023/10/19 10:02:47;;;;;;;9.77;2.00;;;17.40;75.20;;;;;;6220975;28;20057;-88
2023/10/19 10:05:49;;;;;;;10.60;2.58;;;17.90;73.00;;;;;;6219285;28;20431;-83
2023/10/19 10:08:51;;;;;;;11.43;2.15;;;18.50;68.20;;;;;;6223831;28;20061;-93
2023/10/19 10:11:56;;;;;;;12.55;2.08;;;18.70;60.80;;;;;;6224345;28;20061;-89
2023/10/19 10:14:58;;;;;;;9.27;2.10;;;18.60;59.60;;;;;;6208551;28;20050;-84
2023/10/19 10:18:01;;;;;;;10.23;2.10;;;18.50;64.40;;;;;;6223042;28;20054;-79
2023/10/19 10:21:02;;;;;;;10.35;2.22;;;18.40;60.90;;;;;;6224770;28;20111;-92
2023/10/19 10:24:04;;;;;;;9.32;1.73;;;18.10;63.10;;;;;;6198698;28;20050;-86
2023/10/19 10:27:06;;;;;;;10.45;2.10;;;18.00;68.10;;;;;;6228744;28;20066;-84
2023/10/19 10:30:10;;;;;;;13.45;2.30;;;18.00;65.90;;;;;;6217281;28;20145;-82
2023/10/19 10:33:13;;;;;;;10.95;1.80;;;17.90;65.40;;;;;;6219558;28;20069;-83
2023/10/19 10:36:16;;;;;;;9.00;2.05;;;18.00;69.10;;;;;;6222325;28;20192;-82
2023/10/19 10:39:19;;;;;;;7.03;1.73;;;18.00;67.50;;;;;;6221108;28;20053;-87
2023/10/19 10:42:21;;;;;;;7.72;1.55;;;18.30;62.00;;;;;;6241999;28;20042;-85
2023/10/19 10:45:22;;;;;;;10.02;1.70;;;18.20;58.70;;;;;;6205922;28;20057;-87
2023/10/19 10:48:25;;;;;;;12.02;2.65;;;18.20;59.70;;;;;;6219051;28;20517;-83
2023/10/19 10:51:28;;;;;;;8.73;1.90;;;18.60;60.00;;;;;;6228217;28;20064;-87
2023/10/19 10:54:30;;;;;;;9.77;2.30;;;18.40;59.80;;;;;;6227693;28;20061;-86
2023/10/19 10:57:32;;;;;;;10.02;2.25;;;18.50;56.00;;;;;;6221954;28;20050;-90
2023/10/19 11:00:36;;;;;;;6.90;1.50;;;18.80;59.90;;;;;;6217970;28;20502;-86
2023/10/19 11:03:38;;;;;;;7.13;1.80;;;19.00;47.00;;;;;;6220779;28;20081;-88
2023/10/19 11:06:40;;;;;;;8.25;1.80;;;19.00;48.40;;;;;;6216000;28;20069;-92
2023/10/19 11:09:42;;;;;;;10.38;1.90;;;18.90;54.40;;;;;;6226410;28;20072;-84
2023/10/19 11:12:43;;;;;;;7.82;1.67;;;18.90;50.20;;;;;;6218239;28;20050;-83
2023/10/19 11:15:45;;;;;;;9.65;1.60;;;19.00;53.10;;;;;;6220674;28;20066;-84
2023/10/19 11:18:48;;;;;;;8.48;1.90;;;18.80;52.00;;;;;;6219305;28;20490;-87
2023/10/19 11:21:49;;;;;;;12.13;1.75;;;18.80;53.70;;;;;;6219596;28;20053;-90
2023/10/19 11:24:52;;;;;;;11.88;2.38;;;19.10;55.90;;;;;;6218641;28;20046;-91
2023/10/19 11:27:54;;;;;;;8.60;1.70;;;19.10;50.40;;;;;;6216282;28;20072;-82
2023/10/19 11:30:57;;;;;;;7.78;1.88;;;19.20;50.80;;;;;;6222527;28;20076;-90
2023/10/19 11:34:00;;;;;;;11.32;2.17;;;19.20;46.80;;;;;;6207250;28;20054;-81
2023/10/19 11:37:03;;;;;;;10.40;1.75;;;19.20;47.80;;;;;;6226187;28;20078;-80
2023/10/19 11:40:05;;;;;;;7.22;1.80;;;19.00;50.70;;;;;;6215855;28;20437;-80
2023/10/19 11:43:06;;;;;;;6.50;1.75;;;18.90;53.50;;;;;;6224792;28;20049;-89
2023/10/19 11:46:08;;;;;;;8.35;1.85;;;18.80;56.20;;;;;;6225532;28;20073;-81
2023/10/19 11:49:10;;;;;;;6.35;1.75;;;18.50;59.50;;;;;;6220344;28;20057;-88
2023/10/19 11:52:11;;;;;;;10.73;1.80;;;18.20;63.50;;;;;;6229547;28;20057;-83
2023/10/19 11:55:13;;;;;;;9.27;1.55;;;18.10;63.20;;;;;;6224151;28;20049;-84
2023/10/19 11:58:15;;;;;;;9.38;1.75;;;18.30;66.70;;;;;;6231656;28;20053;-80
2023/10/19 12:01:17;;;;;;;12.07;1.85;;;18.40;64.60;;;;;;6225597;28;20513;-80
2023/10/19 12:04:19;;;;;;;6.88;1.80;;;18.60;59.70;;;;;;6223551;28;20089;-82
2023/10/19 12:07:21;;;;;;;6.93;1.77;;;19.00;62.20;;;;;;6222767;28;20053;-82
2023/10/19 12:10:35;;;;;;;10.75;1.90;;;19.20;50.80;;;;;;6223216;28;20505;-82
2023/10/19 12:13:37;;;;;;;9.93;1.80;;;19.10;51.00;;;;;;6206738;28;20049;-82
2023/10/19 12:16:39;;;;;;;9.77;2.25;;;19.10;46.80;;;;;;6224411;28;20136;-82
2023/10/19 12:19:41;;;;;;;12.13;1.98;;;19.00;49.30;;;;;;6223995;28;20105;-82
2023/10/19 12:22:42;;;;;;;11.25;1.67;;;18.90;51.90;;;;;;6221924;28;20053;-82
2023/10/19 12:25:44;;;;;;;11.30;2.35;;;18.80;51.50;;;;;;6223043;28;20056;-83
2023/10/19 12:28:58;;;;;;;9.65;2.05;;;18.90;53.80;;;;;;6209942;28;20054;-83
2023/10/19 12:32:00;;;;;;;11.05;2.60;;;18.90;47.70;;;;;;6222916;28;20060;-82
2023/10/19 12:35:03;;;;;;;15.02;2.58;;;18.90;49.90;;;;;;6222801;28;20062;-82
2023/10/19 12:38:06;;;;;;;11.73;1.80;;;18.80;48.60;;;;;;6223108;28;20093;-83
2023/10/19 12:41:09;;;;;;;12.43;1.90;;;18.90;46.30;;;;;;6228411;28;20057;-84
2023/10/19 12:44:12;;;;;;;15.55;2.00;;;19.00;49.70;;;;;;6220625;28;20684;-86
2023/10/19 12:47:14;;;;;;;11.50;2.17;;;19.00;49.00;;;;;;6223206;28;20140;-85
2023/10/19 12:50:15;;;;;;;13.00;1.88;;;18.90;50.20;;;;;;6221652;28;20517;-86
2023/10/19 12:53:17;;;;;;;13.32;2.22;;;18.80;52.60;;;;;;6221814;28;20513;-84
2023/10/19 12:56:19;;;;;;;9.40;1.40;;;18.70;59.20;;;;;;6222353;28;20591;-83
2023/10/19 12:59:21;;;;;;;11.95;1.58;;;18.50;66.80;;;;;;6220605;28;20061;-81
2023/10/19 13:02:22;;;;;;;8.85;2.05;;;18.50;67.00;;;;;;6219891;28;20053;-81
2023/10/19 13:05:25;;;;;;;10.63;2.22;;;19.50;66.40;;;;;;6220632;28;20510;-82
2023/10/19 13:08:27;;;;;;;11.82;1.70;;;20.30;47.10;;;;;;6221176;28;20422;-82
2023/10/19 13:11:32;;;;;;;8.38;1.42;;;21.20;49.20;;;;;;6221229;28;20058;-84
2023/10/19 13:14:34;;;;;;;4.70;1.17;;;21.80;23.80;;;;;;6219884;28;20089;-82
2023/10/19 13:17:36;;;;;;;6.68;1.30;;;22.00;16.80;;;;;;6212557;28;20560;-82
2023/10/19 13:20:38;;;;;;;7.85;1.40;;;21.70;16.80;;;;;;6235691;28;20064;-83
2023/10/19 13:23:41;;;;;;;6.90;1.52;;;21.60;8.40;;;;;;6229841;28;20428;-80
2023/10/19 13:26:46;;;;;;;8.23;1.33;;;21.80;14.00;;;;;;6228940;28;20046;-82
2023/10/19 13:29:48;;;;;;;7.00;1.40;;;21.70;6.60;;;;;;6219095;28;20057;-86
2023/10/19 13:32:49;;;;;;;12.05;1.50;;;21.50;5.20;;;;;;6224699;28;20053;-82
2023/10/19 13:35:51;;;;;;;4.80;1.13;;;20.90;21.20;;;;;;6221270;28;20540;-80
2023/10/19 13:38:53;;;;;;;5.78;1.20;;;20.10;22.60;;;;;;6221796;28;20050;-81
2023/10/19 13:41:55;;;;;;;6.28;1.13;;;19.70;36.80;;;;;;6221717;28;20064;-82
2023/10/19 13:44:56;;;;;;;6.47;1.20;;;19.90;32.20;;;;;;6218494;28;20660;-81
2023/10/19 13:47:58;;;;;;;7.60;1.30;;;20.70;19.10;;;;;;6219834;28;20060;-82
2023/10/19 13:51:12;;;;;;;5.78;1.20;;;21.00;14.30;;;;;;6219758;28;20089;-81
2023/10/19 13:54:15;;;;;;;5.88;1.10;;;20.40;18.30;;;;;;6221036;28;20050;-84
2023/10/19 13:57:16;;;;;;;3.70;1.00;;;20.40;24.00;;;;;;6220173;28;20423;-85
2023/10/19 14:00:25;;;;;;;8.63;1.50;;;20.30;25.40;;;;;;6216785;28;20096;-84
2023/10/19 14:03:26;;;;;;;5.35;1.20;;;20.20;26.40;;;;;;6196047;28;20420;-86
2023/10/19 14:06:28;;;;;;;3.47;1.17;;;20.80;18.50;;;;;;6227722;28;20419;-86
2023/10/19 14:09:31;;;;;;;6.30;1.20;;;21.20;16.30;;;;;;6221466;28;20050;-89
2023/10/19 14:12:33;;;;;;;8.63;1.30;;;20.70;15.10;;;;;;6214638;28;20418;-88
2023/10/19 14:15:37;;;;;;;8.48;1.33;;;20.00;21.20;;;;;;6223822;28;20061;-88
2023/10/19 14:18:39;;;;;;;8.90;1.83;;;19.60;30.20;;;;;;6225464;28;20112;-89
2023/10/19 14:21:43;;;;;;;6.80;2.08;;;19.60;35.00;;;;;;6221922;28;20115;-90
2023/10/19 14:24:44;;;;;;;8.23;1.30;;;20.30;26.70;;;;;;6221955;28;20061;-89
2023/10/19 14:27:47;;;;;;;10.48;1.83;;;20.80;17.00;;;;;;6222218;28;20064;-87
2023/10/19 14:30:49;;;;;;;9.70;1.40;;;20.80;16.90;;;;;;6223034;28;20046;-88
2023/10/19 14:33:54;;;;;;;7.75;1.40;;;20.30;19.20;;;;;;6210881;28;20061;-80
2023/10/19 14:36:56;;;;;;;7.18;1.17;;;19.70;30.10;;;;;;6218057;28;20050;-79
2023/10/19 14:39:58;;;;;;;6.93;1.58;;;19.30;35.70;;;;;;6220006;28;20114;-80
2023/10/19 14:43:01;;;;;;;11.20;1.83;;;19.20;35.30;;;;;;6216934;28;20050;-81
2023/10/19 14:46:03;;;;;;;8.90;1.90;;;19.30;35.00;;;;;;6220298;28;20057;-81
2023/10/19 14:49:06;;;;;;;7.60;1.65;;;19.20;37.80;;;;;;6219877;28;20053;-89
2023/10/19 14:52:08;;;;;;;11.30;1.75;;;19.40;34.50;;;;;;6221453;28;20057;-87
2023/10/19 14:55:09;;;;;;;9.50;2.15;;;19.30;36.10;;;;;;6222351;28;20057;-88
2023/10/19 14:58:11;;;;;;;7.43;1.65;;;19.10;40.60;;;;;;6220326;28;20418;-88
2023/10/19 15:01:16;;;;;;;8.98;2.05;;;18.80;44.50;;;;;;6223553;28;20065;-88
2023/10/19 15:04:18;;;;;;;8.48;1.88;;;18.70;48.40;;;;;;6197346;28;20056;-88
2023/10/19 15:07:20;;;;;;;7.40;1.73;;;18.60;48.10;;;;;;6221006;28;20060;-87
2023/10/19 15:10:22;;;;;;;9.90;1.70;;;18.60;49.30;;;;;;6221807;28;20481;-88
2023/10/19 15:13:24;;;;;;;14.63;1.75;;;18.50;50.70;;;;;;6223316;28;20046;-86
2023/10/19 15:16:25;;;;;;;9.73;2.00;;;18.50;50.00;;;;;;6218954;28;20142;-86
2023/10/19 15:19:27;;;;;;;9.30;2.13;;;18.50;51.00;;;;;;6219917;28;20512;-85
2023/10/19 15:22:31;;;;;;;12.48;1.90;;;18.50;50.50;;;;;;6225793;28;20058;-90
2023/10/19 15:25:33;;;;;;;12.65;2.00;;;18.50;51.50;;;;;;6227549;28;20543;-89
2023/10/19 15:28:34;;;;;;;12.02;2.00;;;18.40;53.20;;;;;;6222040;28;20057;-89
2023/10/19 15:31:36;;;;;;;10.30;2.00;;;18.40;54.40;;;;;;6223348;28;20370;-90
2023/10/19 15:34:38;;;;;;;10.57;1.83;;;18.30;54.00;;;;;;6200017;28;20065;-87
2023/10/19 15:37:39;;;;;;;10.85;1.90;;;18.20;55.50;;;;;;6232953;28;20137;-90
2023/10/19 15:40:41;;;;;;;9.77;2.60;;;18.10;54.90;;;;;;6221975;28;20144;-89
2023/10/19 15:43:43;;;;;;;10.88;2.10;;;18.10;55.40;;;;;;6220355;28;20073;-85
2023/10/19 15:46:48;;;;;;;15.27;2.55;;;18.00;57.50;;;;;;6220599;28;20177;-88
2023/10/19 15:49:50;;;;;;;8.63;1.58;;;18.00;57.40;;;;;;6218675;28;20053;-88
2023/10/19 15:52:52;;;;;;;9.48;2.00;;;18.00;56.00;;;;;;6195159;28;20431;-85
2023/10/19 15:55:54;;;;;;;12.20;1.92;;;18.00;56.40;;;;;;6221296;28;20149;-82